sensor_id;sensor_type;location;lat;lon;timestamp;temperature;humidity
16674;DHT22;8450;52.654;10.326;2023-05-09T04:34:30;7.80;99.90
16674;DHT22;8450;52.654;10.326;2023-05-09T04:37:00;7.80;99.90
16674;DHT22;8450;52.654;10.326;2023-05-09T04:39:26;7.70;99.90
16674;DHT22;8450;52.654;10.326;2023-05-09T04:42:01;7.80;99.90
16674;DHT22;8450;52.654;10.326;2023-05-09T04:44:27;7.70;99.90
16674;DHT22;8450;52.654;10.326;2023-05-09T04:46:53;7.80;99.90
16674;DHT22;8450;52.654;10.326;2023-05-09T04:49:19;7.80;99.90
16674;DHT22;8450;52.654;10.326;2023-05-09T04:51:45;7.80;99.90
16674;DHT22;8450;52.654;10.326;2023-05-09T04:54:10;7.80;99.90
16674;DHT22;8450;52.654;10.326;2023-05-09T04:56:38;7.90;99.90
16674;DHT22;8450;52.654;10.326;2023-05-09T04:59:03;7.90;99.90
16674;DHT22;8450;52.654;10.326;2023-05-09T05:01:29;8.00;99.90
16674;DHT22;8450;52.654;10.326;2023-05-09T05:03:55;8.00;99.90
16674;DHT22;8450;52.654;10.326;2023-05-09T05:06:21;8.00;99.90
16674;DHT22;8450;52.654;10.326;2023-05-09T05:08:47;8.10;99.90
16674;DHT22;8450;52.654;10.326;2023-05-09T05:11:13;8.10;99.90
16674;DHT22;8450;52.654;10.326;2023-05-09T05:13:38;8.20;99.90
16674;DHT22;8450;52.654;10.326;2023-05-09T05:16:04;8.20;99.90
16674;DHT22;8450;52.654;10.326;2023-05-09T05:18:30;8.30;99.90
16674;DHT22;8450;52.654;10.326;2023-05-09T05:20:55;8.30;99.90
16674;DHT22;8450;52.654;10.326;2023-05-09T05:23:22;8.40;99.90
16674;DHT22;8450;52.654;10.326;2023-05-09T05:25:51;8.50;99.90
16674;DHT22;8450;52.654;10.326;2023-05-09T05:28:18;8.50;99.90
16674;DHT22;8450;52.654;10.326;2023-05-09T05:30:44;8.60;99.90
16674;DHT22;8450;52.654;10.326;2023-05-09T05:33:10;8.70;99.90
16674;DHT22;8450;52.654;10.326;2023-05-09T05:35:35;8.70;99.90
16674;DHT22;8450;52.654;10.326;2023-05-09T05:38:01;8.80;99.90
16674;DHT22;8450;52.654;10.326;2023-05-09T05:40:27;8.90;99.90
16674;DHT22;8450;52.654;10.326;2023-05-09T05:42:54;9.00;99.90
16674;DHT22;8450;52.654;10.326;2023-05-09T05:45:20;9.10;99.90
16674;DHT22;8450;52.654;10.326;2023-05-09T05:47:49;9.20;99.90
16674;DHT22;8450;52.654;10.326;2023-05-09T05:50:15;9.30;99.90
16674;DHT22;8450;52.654;10.326;2023-05-09T05:52:41;9.40;99.90
16674;DHT22;8450;52.654;10.326;2023-05-09T05:55:10;9.40;99.90
16674;DHT22;8450;52.654;10.326;2023-05-09T05:57:36;9.60;99.90
16674;DHT22;8450;52.654;10.326;2023-05-09T06:00:06;9.70;99.90
16674;DHT22;8450;52.654;10.326;2023-05-09T06:02:54;9.80;99.90
16674;DHT22;8450;52.654;10.326;2023-05-09T06:05:25;10.00;99.90
16674;DHT22;8450;52.654;10.326;2023-05-09T06:07:51;10.20;99.90
16674;DHT22;8450;52.654;10.326;2023-05-09T06:10:17;10.30;99.90
16674;DHT22;8450;52.654;10.326;2023-05-09T06:12:44;10.50;99.90
16674;DHT22;8450;52.654;10.326;2023-05-09T06:15:09;10.70;99.90
16674;DHT22;8450;52.654;10.326;2023-05-09T06:17:39;10.80;99.90
16674;DHT22;8450;52.654;10.326;2023-05-09T06:20:06;11.00;99.90
16674;DHT22;8450;52.654;10.326;2023-05-09T06:22:31;11.20;99.90
16674;DHT22;8450;52.654;10.326;2023-05-09T06:24:57;11.40;99.90
16674;DHT22;8450;52.654;10.326;2023-05-09T06:27:23;11.60;99.90
16674;DHT22;8450;52.654;10.326;2023-05-09T06:29:48;11.80;99.90
16674;DHT22;8450;52.654;10.326;2023-05-09T06:32:14;12.00;99.90
16674;DHT22;8450;52.654;10.326;2023-05-09T06:34:40;12.10;99.90
16674;DHT22;8450;52.654;10.326;2023-05-09T06:37:06;12.30;99.90
16674;DHT22;8450;52.654;10.326;2023-05-09T06:39:32;12.50;99.90
16674;DHT22;8450;52.654;10.326;2023-05-09T06:41:58;12.70;99.90
16674;DHT22;8450;52.654;10.326;2023-05-09T06:44:29;12.90;99.90
16674;DHT22;8450;52.654;10.326;2023-05-09T06:46:55;13.10;99.90
16674;DHT22;8450;52.654;10.326;2023-05-09T06:49:20;13.30;99.90
16674;DHT22;8450;52.654;10.326;2023-05-09T06:51:46;13.50;99.90
16674;DHT22;8450;52.654;10.326;2023-05-09T06:54:11;13.70;99.90
16674;DHT22;8450;52.654;10.326;2023-05-09T06:56:37;13.90;99.90
16674;DHT22;8450;52.654;10.326;2023-05-09T06:59:03;14.10;99.90
16674;DHT22;8450;52.654;10.326;2023-05-09T07:01:28;14.20;99.90
16674;DHT22;8450;52.654;10.326;2023-05-09T07:03:54;14.40;99.90
16674;DHT22;8450;52.654;10.326;2023-05-09T07:06:19;14.50;99.90
16674;DHT22;8450;52.654;10.326;2023-05-09T07:08:45;14.60;99.90
16674;DHT22;8450;52.654;10.326;2023-05-09T07:11:10;14.80;99.90
16674;DHT22;8450;52.654;10.326;2023-05-09T07:13:36;14.90;99.90
16674;DHT22;8450;52.654;10.326;2023-05-09T07:16:01;15.00;99.90
16674;DHT22;8450;52.654;10.326;2023-05-09T07:18:27;15.20;99.90
16674;DHT22;8450;52.654;10.326;2023-05-09T07:20:52;15.40;99.90
16674;DHT22;8450;52.654;10.326;2023-05-09T07:23:18;15.50;99.90
16674;DHT22;8450;52.654;10.326;2023-05-09T07:25:43;15.70;99.90
16674;DHT22;8450;52.654;10.326;2023-05-09T07:28:10;15.90;99.90
16674;DHT22;8450;52.654;10.326;2023-05-09T07:30:36;16.10;99.90
16674;DHT22;8450;52.654;10.326;2023-05-09T07:33:02;16.30;99.90
16674;DHT22;8450;52.654;10.326;2023-05-09T07:35:28;16.50;99.90
16674;DHT22;8450;52.654;10.326;2023-05-09T07:37:53;16.70;99.90
16674;DHT22;8450;52.654;10.326;2023-05-09T07:40:19;16.90;99.90
16674;DHT22;8450;52.654;10.326;2023-05-09T07:42:44;17.10;99.90
16674;DHT22;8450;52.654;10.326;2023-05-09T07:45:14;17.30;99.90
16674;DHT22;8450;52.654;10.326;2023-05-09T07:47:40;17.50;99.90
16674;DHT22;8450;52.654;10.326;2023-05-09T07:50:05;17.70;99.90
16674;DHT22;8450;52.654;10.326;2023-05-09T07:52:31;17.90;99.90
16674;DHT22;8450;52.654;10.326;2023-05-09T07:54:57;18.20;99.90
16674;DHT22;8450;52.654;10.326;2023-05-09T07:57:22;18.30;99.90
16674;DHT22;8450;52.654;10.326;2023-05-09T07:59:48;18.60;99.90
16674;DHT22;8450;52.654;10.326;2023-05-09T08:02:13;18.80;99.90
16674;DHT22;8450;52.654;10.326;2023-05-09T08:04:39;19.00;99.90
16674;DHT22;8450;52.654;10.326;2023-05-09T08:07:05;19.20;99.90
16674;DHT22;8450;52.654;10.326;2023-05-09T08:09:32;19.40;99.90
16674;DHT22;8450;52.654;10.326;2023-05-09T08:11:57;19.60;99.90
16674;DHT22;8450;52.654;10.326;2023-05-09T08:14:23;19.80;99.90
16674;DHT22;8450;52.654;10.326;2023-05-09T08:16:48;20.00;99.90
16674;DHT22;8450;52.654;10.326;2023-05-09T08:19:14;20.20;99.90
16674;DHT22;8450;52.654;10.326;2023-05-09T08:21:40;20.30;99.90
16674;DHT22;8450;52.654;10.326;2023-05-09T08:24:05;20.50;99.90
16674;DHT22;8450;52.654;10.326;2023-05-09T08:26:33;20.70;99.90
16674;DHT22;8450;52.654;10.326;2023-05-09T08:28:59;20.90;99.90
16674;DHT22;8450;52.654;10.326;2023-05-09T08:31:25;21.10;99.90
16674;DHT22;8450;52.654;10.326;2023-05-09T08:33:51;21.30;99.90
16674;DHT22;8450;52.654;10.326;2023-05-09T08:36:17;21.50;99.90
16674;DHT22;8450;52.654;10.326;2023-05-09T08:38:42;21.70;99.90
16674;DHT22;8450;52.654;10.326;2023-05-09T08:41:08;21.90;99.90
16674;DHT22;8450;52.654;10.326;2023-05-09T08:43:33;22.10;99.90
16674;DHT22;8450;52.654;10.326;2023-05-09T08:46:06;22.20;99.90
16674;DHT22;8450;52.654;10.326;2023-05-09T08:48:34;22.40;99.90
16674;DHT22;8450;52.654;10.326;2023-05-09T08:51:03;22.60;99.90
16674;DHT22;8450;52.654;10.326;2023-05-09T08:53:30;22.70;99.90
16674;DHT22;8450;52.654;10.326;2023-05-09T08:55:57;22.90;99.90
16674;DHT22;8450;52.654;10.326;2023-05-09T08:58:23;23.10;99.90
16674;DHT22;8450;52.654;10.326;2023-05-09T09:00:49;23.20;99.90
16674;DHT22;8450;52.654;10.326;2023-05-09T09:03:16;23.30;99.90
16674;DHT22;8450;52.654;10.326;2023-05-09T09:05:42;23.50;99.90
16674;DHT22;8450;52.654;10.326;2023-05-09T09:08:09;23.60;99.90
16674;DHT22;8450;52.654;10.326;2023-05-09T09:10:39;23.70;99.90
16674;DHT22;8450;52.654;10.326;2023-05-09T09:13:06;23.80;99.90
16674;DHT22;8450;52.654;10.326;2023-05-09T09:15:36;23.90;99.90
16674;DHT22;8450;52.654;10.326;2023-05-09T09:18:07;24.10;99.90
16674;DHT22;8450;52.654;10.326;2023-05-09T09:20:44;24.20;99.90
16674;DHT22;8450;52.654;10.326;2023-05-09T09:23:11;24.20;99.90
16674;DHT22;8450;52.654;10.326;2023-05-09T09:25:39;24.40;99.90
16674;DHT22;8450;52.654;10.326;2023-05-09T09:28:05;24.50;99.90
16674;DHT22;8450;52.654;10.326;2023-05-09T09:30:31;24.60;99.90
16674;DHT22;8450;52.654;10.326;2023-05-09T09:32:59;24.80;99.90
16674;DHT22;8450;52.654;10.326;2023-05-09T09:35:25;24.80;99.90
16674;DHT22;8450;52.654;10.326;2023-05-09T09:37:57;25.00;99.90
16674;DHT22;8450;52.654;10.326;2023-05-09T09:40:23;25.10;99.90
16674;DHT22;8450;52.654;10.326;2023-05-09T09:42:50;25.30;99.90
16674;DHT22;8450;52.654;10.326;2023-05-09T09:45:17;25.40;99.90
16674;DHT22;8450;52.654;10.326;2023-05-09T09:47:44;25.50;99.90
16674;DHT22;8450;52.654;10.326;2023-05-09T09:50:18;25.60;99.90
16674;DHT22;8450;52.654;10.326;2023-05-09T09:52:54;25.70;99.90
16674;DHT22;8450;52.654;10.326;2023-05-09T09:55:21;25.90;99.90
16674;DHT22;8450;52.654;10.326;2023-05-09T09:57:47;25.90;99.90
16674;DHT22;8450;52.654;10.326;2023-05-09T10:00:15;26.00;99.90
16674;DHT22;8450;52.654;10.326;2023-05-09T10:02:52;26.10;99.90
16674;DHT22;8450;52.654;10.326;2023-05-09T10:05:26;26.10;99.90
16674;DHT22;8450;52.654;10.326;2023-05-09T10:08:03;26.20;99.90
16674;DHT22;8450;52.654;10.326;2023-05-09T10:10:33;26.40;99.90
16674;DHT22;8450;52.654;10.326;2023-05-09T10:13:09;26.40;99.90
16674;DHT22;8450;52.654;10.326;2023-05-09T10:15:35;26.50;99.90
16674;DHT22;8450;52.654;10.326;2023-05-09T10:18:04;26.60;99.90
16674;DHT22;8450;52.654;10.326;2023-05-09T10:20:33;26.70;99.90
16674;DHT22;8450;52.654;10.326;2023-05-09T10:23:02;26.80;99.90
16674;DHT22;8450;52.654;10.326;2023-05-09T10:25:37;26.80;99.90
16674;DHT22;8450;52.654;10.326;2023-05-09T10:28:10;26.90;99.90
16674;DHT22;8450;52.654;10.326;2023-05-09T10:30:47;27.00;99.90
16674;DHT22;8450;52.654;10.326;2023-05-09T10:33:15;27.10;99.90
16674;DHT22;8450;52.654;10.326;2023-05-09T10:35:46;27.10;99.90
16674;DHT22;8450;52.654;10.326;2023-05-09T10:38:12;27.20;99.90
16674;DHT22;8450;52.654;10.326;2023-05-09T10:40:42;27.30;99.90
16674;DHT22;8450;52.654;10.326;2023-05-09T10:43:11;27.40;99.90
16674;DHT22;8450;52.654;10.326;2023-05-09T10:45:37;27.50;99.90
16674;DHT22;8450;52.654;10.326;2023-05-09T10:48:05;27.60;99.90
16674;DHT22;8450;52.654;10.326;2023-05-09T10:50:33;27.70;99.90
16674;DHT22;8450;52.654;10.326;2023-05-09T10:55:56;27.80;99.90
16674;DHT22;8450;52.654;10.326;2023-05-09T10:58:30;27.90;99.90
16674;DHT22;8450;52.654;10.326;2023-05-09T11:00:59;27.90;99.90
16674;DHT22;8450;52.654;10.326;2023-05-09T11:03:26;28.00;99.90
16674;DHT22;8450;52.654;10.326;2023-05-09T11:05:54;28.10;99.90
16674;DHT22;8450;52.654;10.326;2023-05-09T11:08:29;28.20;99.90
16674;DHT22;8450;52.654;10.326;2023-05-09T11:11:05;28.30;99.90
16674;DHT22;8450;52.654;10.326;2023-05-09T11:13:33;28.40;99.90
16674;DHT22;8450;52.654;10.326;2023-05-09T11:18:27;28.50;99.90
16674;DHT22;8450;52.654;10.326;2023-05-09T11:20:53;28.50;99.90
16674;DHT22;8450;52.654;10.326;2023-05-09T11:23:20;28.50;99.90
16674;DHT22;8450;52.654;10.326;2023-05-09T11:25:47;28.50;99.90
16674;DHT22;8450;52.654;10.326;2023-05-09T11:28:26;28.50;99.90
16674;DHT22;8450;52.654;10.326;2023-05-09T11:31:15;28.50;99.90
16674;DHT22;8450;52.654;10.326;2023-05-09T11:33:43;28.50;99.90
16674;DHT22;8450;52.654;10.326;2023-05-09T11:36:29;28.50;99.90
16674;DHT22;8450;52.654;10.326;2023-05-09T11:39:01;28.50;99.90
16674;DHT22;8450;52.654;10.326;2023-05-09T11:41:28;28.50;99.90
16674;DHT22;8450;52.654;10.326;2023-05-09T11:43:54;28.40;99.90
16674;DHT22;8450;52.654;10.326;2023-05-09T11:46:21;28.50;99.90
16674;DHT22;8450;52.654;10.326;2023-05-09T11:48:47;28.60;99.90
16674;DHT22;8450;52.654;10.326;2023-05-09T11:51:17;28.60;99.90
16674;DHT22;8450;52.654;10.326;2023-05-09T11:53:43;28.40;99.90
16674;DHT22;8450;52.654;10.326;2023-05-09T11:56:11;28.50;99.90
16674;DHT22;8450;52.654;10.326;2023-05-09T11:58:38;28.50;99.90
16674;DHT22;8450;52.654;10.326;2023-05-09T12:01:04;28.50;99.90
16674;DHT22;8450;52.654;10.326;2023-05-09T12:03:29;28.50;99.90
16674;DHT22;8450;52.654;10.326;2023-05-09T12:05:55;28.60;99.90
16674;DHT22;8450;52.654;10.326;2023-05-09T12:08:23;28.60;99.90
16674;DHT22;8450;52.654;10.326;2023-05-09T12:10:49;28.60;99.90
16674;DHT22;8450;52.654;10.326;2023-05-09T12:13:15;28.50;99.90
16674;DHT22;8450;52.654;10.326;2023-05-09T12:15:40;28.50;99.90
16674;DHT22;8450;52.654;10.326;2023-05-09T12:18:07;28.50;99.90
16674;DHT22;8450;52.654;10.326;2023-05-09T12:23:05;28.50;99.90
16674;DHT22;8450;52.654;10.326;2023-05-09T12:25:31;28.50;99.90
16674;DHT22;8450;52.654;10.326;2023-05-09T12:27:57;28.50;99.90
16674;DHT22;8450;52.654;10.326;2023-05-09T12:30:22;28.50;99.90
16674;DHT22;8450;52.654;10.326;2023-05-09T12:32:48;28.40;99.90
16674;DHT22;8450;52.654;10.326;2023-05-09T12:35:14;28.40;99.90
16674;DHT22;8450;52.654;10.326;2023-05-09T12:37:54;28.40;99.90
16674;DHT22;8450;52.654;10.326;2023-05-09T12:40:20;28.50;99.90
16674;DHT22;8450;52.654;10.326;2023-05-09T12:42:46;28.50;99.90
16674;DHT22;8450;52.654;10.326;2023-05-09T12:45:11;28.40;99.90
16674;DHT22;8450;52.654;10.326;2023-05-09T12:47:37;28.40;99.90
16674;DHT22;8450;52.654;10.326;2023-05-09T12:50:10;28.30;99.90
16674;DHT22;8450;52.654;10.326;2023-05-09T12:52:38;28.30;99.90
16674;DHT22;8450;52.654;10.326;2023-05-09T12:55:11;28.30;99.90
16674;DHT22;8450;52.654;10.326;2023-05-09T12:57:38;28.20;99.90
16674;DHT22;8450;52.654;10.326;2023-05-09T13:00:06;28.20;99.90
16674;DHT22;8450;52.654;10.326;2023-05-09T13:02:37;28.20;99.90
16674;DHT22;8450;52.654;10.326;2023-05-09T13:05:17;28.10;99.90
16674;DHT22;8450;52.654;10.326;2023-05-09T13:07:45;28.00;99.90
16674;DHT22;8450;52.654;10.326;2023-05-09T13:10:16;27.90;99.90
16674;DHT22;8450;52.654;10.326;2023-05-09T13:12:48;27.90;99.90
16674;DHT22;8450;52.654;10.326;2023-05-09T13:15:18;27.80;99.90
16674;DHT22;8450;52.654;10.326;2023-05-09T13:17:48;27.70;99.90
16674;DHT22;8450;52.654;10.326;2023-05-09T13:20:15;27.70;99.90
16674;DHT22;8450;52.654;10.326;2023-05-09T13:22:40;27.60;99.90
16674;DHT22;8450;52.654;10.326;2023-05-09T13:25:06;27.60;99.90
16674;DHT22;8450;52.654;10.326;2023-05-09T13:27:32;27.70;99.90
16674;DHT22;8450;52.654;10.326;2023-05-09T13:29:58;27.70;99.90
16674;DHT22;8450;52.654;10.326;2023-05-09T13:32:23;27.70;99.90
16674;DHT22;8450;52.654;10.326;2023-05-09T13:34:50;27.70;99.90
16674;DHT22;8450;52.654;10.326;2023-05-09T13:37:16;27.80;99.90
16674;DHT22;8450;52.654;10.326;2023-05-09T13:39:41;27.80;99.90
16674;DHT22;8450;52.654;10.326;2023-05-09T13:42:07;27.80;99.90
16674;DHT22;8450;52.654;10.326;2023-05-09T13:44:33;27.80;99.90
16674;DHT22;8450;52.654;10.326;2023-05-09T13:46:58;27.90;99.90
16674;DHT22;8450;52.654;10.326;2023-05-09T13:49:25;27.90;99.90
16674;DHT22;8450;52.654;10.326;2023-05-09T13:51:52;27.90;99.90
16674;DHT22;8450;52.654;10.326;2023-05-09T13:54:18;27.90;99.90
16674;DHT22;8450;52.654;10.326;2023-05-09T13:56:45;27.90;99.90
16674;DHT22;8450;52.654;10.326;2023-05-09T13:59:10;28.00;99.90
16674;DHT22;8450;52.654;10.326;2023-05-09T14:01:36;27.90;99.90
16674;DHT22;8450;52.654;10.326;2023-05-09T14:04:02;28.00;99.90
16674;DHT22;8450;52.654;10.326;2023-05-09T14:06:27;27.90;99.90
16674;DHT22;8450;52.654;10.326;2023-05-09T14:08:57;27.90;99.90
16674;DHT22;8450;52.654;10.326;2023-05-09T14:11:23;27.90;99.90
16674;DHT22;8450;52.654;10.326;2023-05-09T14:13:49;27.90;99.90
16674;DHT22;8450;52.654;10.326;2023-05-09T14:16:17;27.80;99.90
16674;DHT22;8450;52.654;10.326;2023-05-09T14:18:42;27.80;99.90
16674;DHT22;8450;52.654;10.326;2023-05-09T14:21:08;27.70;99.90
16674;DHT22;8450;52.654;10.326;2023-05-09T14:23:34;27.80;99.90
16674;DHT22;8450;52.654;10.326;2023-05-09T14:25:59;27.70;99.90
16674;DHT22;8450;52.654;10.326;2023-05-09T14:28:25;27.70;99.90
16674;DHT22;8450;52.654;10.326;2023-05-09T14:30:51;27.60;99.90
16674;DHT22;8450;52.654;10.326;2023-05-09T14:33:17;27.50;99.90
16674;DHT22;8450;52.654;10.326;2023-05-09T14:35:42;27.50;99.90
16674;DHT22;8450;52.654;10.326;2023-05-09T14:38:08;27.40;99.90
16674;DHT22;8450;52.654;10.326;2023-05-09T14:40:34;27.30;99.90
16674;DHT22;8450;52.654;10.326;2023-05-09T14:43:00;27.30;99.90
16674;DHT22;8450;52.654;10.326;2023-05-09T14:45:30;27.20;99.90
16674;DHT22;8450;52.654;10.326;2023-05-09T14:47:57;27.10;99.90
16674;DHT22;8450;52.654;10.326;2023-05-09T14:50:23;27.00;99.90
16674;DHT22;8450;52.654;10.326;2023-05-09T14:52:49;26.90;99.90
16674;DHT22;8450;52.654;10.326;2023-05-09T14:55:17;26.80;99.90
16674;DHT22;8450;52.654;10.326;2023-05-09T14:57:43;26.80;99.90
16674;DHT22;8450;52.654;10.326;2023-05-09T15:00:10;26.70;99.90
16674;DHT22;8450;52.654;10.326;2023-05-09T15:02:37;26.60;99.90
16674;DHT22;8450;52.654;10.326;2023-05-09T15:05:03;26.50;99.90
16674;DHT22;8450;52.654;10.326;2023-05-09T15:07:29;26.40;99.90
16674;DHT22;8450;52.654;10.326;2023-05-09T15:09:54;26.30;99.90
16674;DHT22;8450;52.654;10.326;2023-05-09T15:12:20;26.30;99.90
16674;DHT22;8450;52.654;10.326;2023-05-09T15:14:45;26.20;99.90
16674;DHT22;8450;52.654;10.326;2023-05-09T15:17:11;26.10;99.90
16674;DHT22;8450;52.654;10.326;2023-05-09T15:19:37;26.10;99.90
16674;DHT22;8450;52.654;10.326;2023-05-09T15:22:03;26.00;99.90
16674;DHT22;8450;52.654;10.326;2023-05-09T15:24:29;26.00;99.90
16674;DHT22;8450;52.654;10.326;2023-05-09T15:26:55;26.00;99.90
16674;DHT22;8450;52.654;10.326;2023-05-09T15:29:21;25.90;99.90
16674;DHT22;8450;52.654;10.326;2023-05-09T15:31:46;25.90;99.90
16674;DHT22;8450;52.654;10.326;2023-05-09T15:34:13;25.80;99.90
16674;DHT22;8450;52.654;10.326;2023-05-09T15:36:38;25.80;99.90
16674;DHT22;8450;52.654;10.326;2023-05-09T15:39:04;25.70;99.90
16674;DHT22;8450;52.654;10.326;2023-05-09T15:41:30;25.60;99.90
16674;DHT22;8450;52.654;10.326;2023-05-09T15:43:56;25.60;99.90
16674;DHT22;8450;52.654;10.326;2023-05-09T15:46:22;25.50;99.90
16674;DHT22;8450;52.654;10.326;2023-05-09T15:48:47;25.40;99.90
16674;DHT22;8450;52.654;10.326;2023-05-09T15:51:13;25.40;99.90
16674;DHT22;8450;52.654;10.326;2023-05-09T15:53:38;25.30;99.90
16674;DHT22;8450;52.654;10.326;2023-05-09T15:56:04;25.20;99.90
16674;DHT22;8450;52.654;10.326;2023-05-09T15:58:30;25.10;99.90
16674;DHT22;8450;52.654;10.326;2023-05-09T16:00:55;25.00;99.90
16674;DHT22;8450;52.654;10.326;2023-05-09T16:03:21;24.90;99.90
16674;DHT22;8450;52.654;10.326;2023-05-09T16:05:48;24.80;99.90
16674;DHT22;8450;52.654;10.326;2023-05-09T16:08:14;24.70;99.90
16674;DHT22;8450;52.654;10.326;2023-05-09T16:10:41;24.60;99.90
16674;DHT22;8450;52.654;10.326;2023-05-09T16:13:07;24.40;99.90
16674;DHT22;8450;52.654;10.326;2023-05-09T16:15:33;24.30;99.90
16674;DHT22;8450;52.654;10.326;2023-05-09T16:17:59;24.20;99.90
16674;DHT22;8450;52.654;10.326;2023-05-09T16:20:24;24.00;99.90
16674;DHT22;8450;52.654;10.326;2023-05-09T16:22:50;23.90;99.90
16674;DHT22;8450;52.654;10.326;2023-05-09T16:25:16;23.80;99.90
16674;DHT22;8450;52.654;10.326;2023-05-09T16:27:41;23.70;99.90
16674;DHT22;8450;52.654;10.326;2023-05-09T16:30:07;23.60;99.90
16674;DHT22;8450;52.654;10.326;2023-05-09T16:32:33;23.50;99.90
16674;DHT22;8450;52.654;10.326;2023-05-09T16:34:59;23.40;99.90
16674;DHT22;8450;52.654;10.326;2023-05-09T16:37:24;23.30;99.90
16674;DHT22;8450;52.654;10.326;2023-05-09T16:39:52;23.30;99.90
16674;DHT22;8450;52.654;10.326;2023-05-09T16:42:18;23.20;99.90
16674;DHT22;8450;52.654;10.326;2023-05-09T16:44:43;23.10;99.90
16674;DHT22;8450;52.654;10.326;2023-05-09T16:47:09;23.00;99.90
16674;DHT22;8450;52.654;10.326;2023-05-09T16:49:35;23.00;99.90
16674;DHT22;8450;52.654;10.326;2023-05-09T16:52:00;22.80;99.90
16674;DHT22;8450;52.654;10.326;2023-05-09T16:54:26;22.70;99.90
16674;DHT22;8450;52.654;10.326;2023-05-09T16:56:52;22.70;99.90
16674;DHT22;8450;52.654;10.326;2023-05-09T16:59:17;22.60;99.90
16674;DHT22;8450;52.654;10.326;2023-05-09T17:01:44;22.50;99.90
16674;DHT22;8450;52.654;10.326;2023-05-09T17:04:11;22.40;99.90
16674;DHT22;8450;52.654;10.326;2023-05-09T17:06:37;22.20;99.50
16674;DHT22;8450;52.654;10.326;2023-05-09T17:09:03;22.10;99.20
16674;DHT22;8450;52.654;10.326;2023-05-09T17:11:28;22.00;99.20
16674;DHT22;8450;52.654;10.326;2023-05-09T17:13:54;21.90;99.40
16674;DHT22;8450;52.654;10.326;2023-05-09T17:16:19;21.80;99.50
16674;DHT22;8450;52.654;10.326;2023-05-09T17:18:45;21.70;99.50
16674;DHT22;8450;52.654;10.326;2023-05-09T17:21:14;21.60;99.70
16674;DHT22;8450;52.654;10.326;2023-05-09T17:23:41;21.60;99.70
16674;DHT22;8450;52.654;10.326;2023-05-09T17:26:06;21.50;99.40
16674;DHT22;8450;52.654;10.326;2023-05-09T17:28:32;21.40;99.10
16674;DHT22;8450;52.654;10.326;2023-05-09T17:30:58;21.20;99.20
16674;DHT22;8450;52.654;10.326;2023-05-09T17:33:27;21.20;99.10
16674;DHT22;8450;52.654;10.326;2023-05-09T17:35:52;21.10;99.10
16674;DHT22;8450;52.654;10.326;2023-05-09T17:38:18;21.00;98.80
16674;DHT22;8450;52.654;10.326;2023-05-09T17:40:44;20.90;98.90
16674;DHT22;8450;52.654;10.326;2023-05-09T17:43:10;20.80;99.20
16674;DHT22;8450;52.654;10.326;2023-05-09T17:45:37;20.80;99.40
16674;DHT22;8450;52.654;10.326;2023-05-09T17:48:03;20.70;99.20
16674;DHT22;8450;52.654;10.326;2023-05-09T17:50:29;20.60;99.50
16674;DHT22;8450;52.654;10.326;2023-05-09T17:52:54;20.50;99.40
16674;DHT22;8450;52.654;10.326;2023-05-09T17:55:20;20.50;98.90
16674;DHT22;8450;52.654;10.326;2023-05-09T17:57:46;20.40;98.80
16674;DHT22;8450;52.654;10.326;2023-05-09T18:00:12;20.30;98.30
16674;DHT22;8450;52.654;10.326;2023-05-09T18:02:40;20.20;98.00
16674;DHT22;8450;52.654;10.326;2023-05-09T18:05:08;20.10;98.10
16674;DHT22;8450;52.654;10.326;2023-05-09T18:07:35;20.00;98.00
